sensor_id;sensor_type;location;lat;lon;timestamp;pressure;altitude;pressure_sealevel;temperature;humidity
7441;BME280;29616;51.950;8.572;2022-09-16T00:01:19;99338.66;;;12.15;100.00
7441;BME280;29616;51.950;8.572;2022-09-16T00:03:47;99336.94;;;12.14;100.00
7441;BME280;29616;51.950;8.572;2022-09-16T00:06:19;99331.34;;;12.07;100.00
7441;BME280;29616;51.950;8.572;2022-09-16T00:08:50;99348.09;;;12.12;100.00
7441;BME280;29616;51.950;8.572;2022-09-16T00:11:18;99332.06;;;12.01;100.00
7441;BME280;29616;51.950;8.572;2022-09-16T00:13:46;99332.09;;;11.93;100.00
7441;BME280;29616;51.950;8.572;2022-09-16T00:16:19;99350.56;;;11.99;100.00
7441;BME280;29616;51.950;8.572;2022-09-16T00:18:48;99346.09;;;11.98;100.00
7441;BME280;29616;51.950;8.572;2022-09-16T00:21:16;99326.31;;;11.88;100.00
7441;BME280;29616;51.950;8.572;2022-09-16T00:23:44;99344.78;;;11.94;100.00
7441;BME280;29616;51.950;8.572;2022-09-16T00:26:13;99342.72;;;11.96;100.00
7441;BME280;29616;51.950;8.572;2022-09-16T00:28:41;99353.34;;;11.91;100.00
7441;BME280;29616;51.950;8.572;2022-09-16T00:31:09;99326.41;;;11.72;100.00
7441;BME280;29616;51.950;8.572;2022-09-16T00:33:38;99340.41;;;11.77;100.00
7441;BME280;29616;51.950;8.572;2022-09-16T00:36:08;99340.72;;;11.82;100.00
7441;BME280;29616;51.950;8.572;2022-09-16T00:38:37;99335.25;;;11.82;100.00
7441;BME280;29616;51.950;8.572;2022-09-16T00:41:06;99333.53;;;11.89;100.00
7441;BME280;29616;51.950;8.572;2022-09-16T00:43:53;99331.91;;;11.95;100.00
7441;BME280;29616;51.950;8.572;2022-09-16T00:46:29;99328.34;;;11.94;100.00
7441;BME280;29616;51.950;8.572;2022-09-16T00:49:03;99332.63;;;11.97;100.00
7441;BME280;29616;51.950;8.572;2022-09-16T00:51:33;99345.81;;;11.93;100.00
7441;BME280;29616;51.950;8.572;2022-09-16T00:54:02;99334.84;;;11.93;100.00
7441;BME280;29616;51.950;8.572;2022-09-16T00:56:38;99335.81;;;12.00;100.00
7441;BME280;29616;51.950;8.572;2022-09-16T00:59:13;99326.44;;;11.95;100.00
7441;BME280;29616;51.950;8.572;2022-09-16T01:01:44;99337.91;;;11.98;100.00
7441;BME280;29616;51.950;8.572;2022-09-16T01:04:18;99332.41;;;11.98;100.00
7441;BME280;29616;51.950;8.572;2022-09-16T01:06:48;99331.34;;;12.07;100.00
7441;BME280;29616;51.950;8.572;2022-09-16T01:09:18;99321.47;;;11.98;100.00
7441;BME280;29616;51.950;8.572;2022-09-16T01:11:46;99327.94;;;12.05;100.00
7441;BME280;29616;51.950;8.572;2022-09-16T01:14:16;99331.34;;;12.07;100.00
7441;BME280;29616;51.950;8.572;2022-09-16T01:17:12;99339.88;;;12.12;100.00
7441;BME280;29616;51.950;8.572;2022-09-16T01:19:56;99329.94;;;12.11;100.00
7441;BME280;29616;51.950;8.572;2022-09-16T01:22:45;99337.78;;;12.14;100.00
7441;BME280;29616;51.950;8.572;2022-09-16T01:25:27;99334.69;;;12.18;100.00
7441;BME280;29616;51.950;8.572;2022-09-16T01:28:25;99337.44;;;12.18;100.00
7441;BME280;29616;51.950;8.572;2022-09-16T01:31:07;99341.50;;;12.22;100.00
7441;BME280;29616;51.950;8.572;2022-09-16T01:33:49;99335.72;;;12.16;100.00
7441;BME280;29616;51.950;8.572;2022-09-16T01:36:42;99338.47;;;12.16;100.00
7441;BME280;29616;51.950;8.572;2022-09-16T01:39:27;99332.97;;;12.16;100.00
7441;BME280;29616;51.950;8.572;2022-09-16T01:42:15;99336.41;;;12.19;100.00
7441;BME280;29616;51.950;8.572;2022-09-16T01:44:53;99335.25;;;12.13;100.00
7441;BME280;29616;51.950;8.572;2022-09-16T01:47:33;99334.56;;;12.11;100.00
7441;BME280;29616;51.950;8.572;2022-09-16T01:50:09;99335.09;;;12.06;100.00
7441;BME280;29616;51.950;8.572;2022-09-16T01:52:45;99340.94;;;12.03;100.00
7441;BME280;29616;51.950;8.572;2022-09-16T01:55:24;99319.63;;;11.91;100.00
7441;BME280;29616;51.950;8.572;2022-09-16T01:57:59;99329.56;;;11.92;100.00
7441;BME280;29616;51.950;8.572;2022-09-16T02:00:30;99329.97;;;11.81;100.00
7441;BME280;29616;51.950;8.572;2022-09-16T02:03:04;99320.75;;;11.66;100.00
7441;BME280;29616;51.950;8.572;2022-09-16T02:05:42;99304.28;;;11.43;100.00
7441;BME280;29616;51.950;8.572;2022-09-16T02:08:21;99317.59;;;11.46;100.00
7441;BME280;29616;51.950;8.572;2022-09-16T02:10:55;99325.16;;;11.44;100.00
7441;BME280;29616;51.950;8.572;2022-09-16T02:13:29;99324.97;;;11.45;100.00
7441;BME280;29616;51.950;8.572;2022-09-16T02:16:03;99324.81;;;11.39;100.00
7441;BME280;29616;51.950;8.572;2022-09-16T02:18:35;99321.91;;;11.40;100.00
7441;BME280;29616;51.950;8.572;2022-09-16T02:21:09;99321.03;;;11.40;100.00
7441;BME280;29616;51.950;8.572;2022-09-16T02:23:42;99314.59;;;11.33;100.00
7441;BME280;29616;51.950;8.572;2022-09-16T02:26:15;99320.19;;;11.39;100.00
7441;BME280;29616;51.950;8.572;2022-09-16T02:28:47;99320.19;;;11.39;100.00
7441;BME280;29616;51.950;8.572;2022-09-16T02:31:21;99318.50;;;11.38;100.00
7441;BME280;29616;51.950;8.572;2022-09-16T02:33:56;99322.09;;;11.39;100.00
7441;BME280;29616;51.950;8.572;2022-09-16T02:36:26;99315.91;;;11.37;100.00
7441;BME280;29616;51.950;8.572;2022-09-16T02:38:59;99323.97;;;11.38;100.00
7441;BME280;29616;51.950;8.572;2022-09-16T02:41:29;99326.34;;;11.41;100.00
7441;BME280;29616;51.950;8.572;2022-09-16T02:43:58;99328.91;;;11.43;100.00
7441;BME280;29616;51.950;8.572;2022-09-16T02:46:37;99325.13;;;11.52;100.00
7441;BME280;29616;51.950;8.572;2022-09-16T02:49:11;99329.50;;;11.61;100.00
7441;BME280;29616;51.950;8.572;2022-09-16T02:51:51;99334.28;;;11.67;100.00
7441;BME280;29616;51.950;8.572;2022-09-16T02:54:27;99327.44;;;11.71;100.00
7441;BME280;29616;51.950;8.572;2022-09-16T02:56:59;99329.81;;;11.74;100.00
7441;BME280;29616;51.950;8.572;2022-09-16T02:59:28;99319.22;;;11.71;100.00
7441;BME280;29616;51.950;8.572;2022-09-16T03:01:58;99322.78;;;11.80;100.00
7441;BME280;29616;51.950;8.572;2022-09-16T03:04:28;99318.69;;;11.76;100.00
7441;BME280;29616;51.950;8.572;2022-09-16T03:06:57;99325.03;;;11.76;100.00
7441;BME280;29616;51.950;8.572;2022-09-16T03:09:25;99306.22;;;11.73;100.00
7441;BME280;29616;51.950;8.572;2022-09-16T03:12:13;99330.28;;;11.86;100.00
7441;BME280;29616;51.950;8.572;2022-09-16T03:15:02;99327.00;;;11.90;100.00
7441;BME280;29616;51.950;8.572;2022-09-16T03:17:51;99324.25;;;11.90;100.00
7441;BME280;29616;51.950;8.572;2022-09-16T03:20:31;99309.91;;;11.88;100.00
7441;BME280;29616;51.950;8.572;2022-09-16T03:23:10;99308.50;;;11.92;100.00
7441;BME280;29616;51.950;8.572;2022-09-16T03:25:49;99271.66;;;11.72;100.00
7441;BME280;29616;51.950;8.572;2022-09-16T03:28:25;99311.22;;;11.92;100.00
7441;BME280;29616;51.950;8.572;2022-09-16T03:31:00;99311.63;;;11.89;100.00
7441;BME280;29616;51.950;8.572;2022-09-16T03:33:34;99304.78;;;11.85;100.00
7441;BME280;29616;51.950;8.572;2022-09-16T03:36:11;99286.88;;;11.75;100.00
7441;BME280;29616;51.950;8.572;2022-09-16T03:38:41;99309.03;;;11.88;100.00
7441;BME280;29616;51.950;8.572;2022-09-16T03:41:10;99319.56;;;11.76;100.00
7441;BME280;29616;51.950;8.572;2022-09-16T03:43:40;99311.34;;;11.76;100.00
7441;BME280;29616;51.950;8.572;2022-09-16T03:46:18;99311.16;;;11.78;100.00
7441;BME280;29616;51.950;8.572;2022-09-16T03:48:47;99312.38;;;11.75;100.00
7441;BME280;29616;51.950;8.572;2022-09-16T03:51:17;99311.00;;;11.71;100.00
7441;BME280;29616;51.950;8.572;2022-09-16T03:53:45;99307.41;;;11.79;100.00
7441;BME280;29616;51.950;8.572;2022-09-16T03:56:13;99305.00;;;11.76;100.00
7441;BME280;29616;51.950;8.572;2022-09-16T03:58:41;99313.38;;;11.74;100.00
7441;BME280;29616;51.950;8.572;2022-09-16T04:01:09;99306.19;;;11.81;100.00
7441;BME280;29616;51.950;8.572;2022-09-16T04:03:38;99304.47;;;11.80;100.00
7441;BME280;29616;51.950;8.572;2022-09-16T04:06:06;99306.19;;;11.81;100.00
7441;BME280;29616;51.950;8.572;2022-09-16T04:08:36;99301.72;;;11.80;100.00
7441;BME280;29616;51.950;8.572;2022-09-16T04:11:06;99304.16;;;11.75;100.00
7441;BME280;29616;51.950;8.572;2022-09-16T04:13:35;99294.94;;;11.68;100.00
7441;BME280;29616;51.950;8.572;2022-09-16T04:16:04;99300.75;;;11.73;100.00
7441;BME280;29616;51.950;8.572;2022-09-16T04:18:35;99301.09;;;11.70;100.00
7441;BME280;29616;51.950;8.572;2022-09-16T04:21:04;99296.97;;;11.66;100.00
7441;BME280;29616;51.950;8.572;2022-09-16T04:23:32;99295.63;;;11.70;100.00
7441;BME280;29616;51.950;8.572;2022-09-16T04:26:02;99295.94;;;11.67;100.00
7441;BME280;29616;51.950;8.572;2022-09-16T04:28:32;99290.47;;;11.67;100.00
7441;BME280;29616;51.950;8.572;2022-09-16T04:31:08;99294.41;;;11.73;100.00
7441;BME280;29616;51.950;8.572;2022-09-16T04:33:37;99282.63;;;11.64;100.00
7441;BME280;29616;51.950;8.572;2022-09-16T04:36:09;99287.44;;;11.70;100.00
7441;BME280;29616;51.950;8.572;2022-09-16T04:38:40;99285.38;;;11.64;100.00
7441;BME280;29616;51.950;8.572;2022-09-16T04:41:13;99280.25;;;11.61;100.00
7441;BME280;29616;51.950;8.572;2022-09-16T04:43:42;99283.16;;;11.60;100.00
7441;BME280;29616;51.950;8.572;2022-09-16T04:46:11;99287.09;;;11.65;100.00
7441;BME280;29616;51.950;8.572;2022-09-16T04:48:39;99274.09;;;11.59;100.00
7441;BME280;29616;51.950;8.572;2022-09-16T04:51:09;99285.25;;;11.57;100.00
7441;BME280;29616;51.950;8.572;2022-09-16T04:53:39;99277.19;;;11.56;100.00
7441;BME280;29616;51.950;8.572;2022-09-16T04:56:13;99271.41;;;11.51;100.00
7441;BME280;29616;51.950;8.572;2022-09-16T04:58:43;99271.59;;;11.49;100.00
7441;BME280;29616;51.950;8.572;2022-09-16T05:01:14;99296.31;;;11.64;100.00
7441;BME280;29616;51.950;8.572;2022-09-16T05:03:44;99287.28;;;11.55;100.00
7441;BME280;29616;51.950;8.572;2022-09-16T05:06:15;99283.53;;;11.56;100.00
7441;BME280;29616;51.950;8.572;2022-09-16T05:08:47;99288.44;;;11.61;100.00
7441;BME280;29616;51.950;8.572;2022-09-16T05:11:19;99268.66;;;11.51;100.00
7441;BME280;29616;51.950;8.572;2022-09-16T05:13:48;99281.44;;;11.58;100.00
7441;BME280;29616;51.950;8.572;2022-09-16T05:16:18;99284.75;;;11.54;100.00
7441;BME280;29616;51.950;8.572;2022-09-16T05:18:49;99278.09;;;11.48;100.00
7441;BME280;29616;51.950;8.572;2022-09-16T05:21:20;99271.09;;;11.46;100.00
7441;BME280;29616;51.950;8.572;2022-09-16T05:23:49;99297.88;;;11.58;100.00
7441;BME280;29616;51.950;8.572;2022-09-16T05:26:22;99295.81;;;11.61;100.00
7441;BME280;29616;51.950;8.572;2022-09-16T05:28:51;99292.75;;;11.55;100.00
7441;BME280;29616;51.950;8.572;2022-09-16T05:31:21;99292.19;;;11.68;100.00
7441;BME280;29616;51.950;8.572;2022-09-16T05:33:54;99299.03;;;11.72;100.00
7441;BME280;29616;51.950;8.572;2022-09-16T05:36:24;99292.91;;;11.70;100.00
7441;BME280;29616;51.950;8.572;2022-09-16T05:38:53;99298.69;;;11.75;100.00
7441;BME280;29616;51.950;8.572;2022-09-16T05:41:42;99294.25;;;11.66;100.00
7441;BME280;29616;51.950;8.572;2022-09-16T05:44:10;99280.91;;;11.71;100.00
7441;BME280;29616;51.950;8.572;2022-09-16T05:46:39;99308.53;;;11.84;100.00
7441;BME280;29616;51.950;8.572;2022-09-16T05:49:08;99307.66;;;11.92;100.00
7441;BME280;29616;51.950;8.572;2022-09-16T05:51:38;99293.47;;;11.88;100.00
7441;BME280;29616;51.950;8.572;2022-09-16T05:54:07;99311.06;;;11.94;100.00
7441;BME280;29616;51.950;8.572;2022-09-16T05:56:35;99313.59;;;11.95;100.00
7441;BME280;29616;51.950;8.572;2022-09-16T05:59:05;99318.56;;;12.00;100.00
7441;BME280;29616;51.950;8.572;2022-09-16T06:01:34;99307.22;;;12.03;100.00
7441;BME280;29616;51.950;8.572;2022-09-16T06:04:05;99317.59;;;12.15;100.00
7441;BME280;29616;51.950;8.572;2022-09-16T06:06:36;99308.97;;;12.27;100.00
7441;BME280;29616;51.950;8.572;2022-09-16T06:09:08;99301.78;;;12.26;100.00
7441;BME280;29616;51.950;8.572;2022-09-16T06:11:39;99307.75;;;12.29;100.00
7441;BME280;29616;51.950;8.572;2022-09-16T06:14:09;99305.53;;;12.25;100.00
7441;BME280;29616;51.950;8.572;2022-09-16T06:16:38;99300.19;;;12.31;100.00
7441;BME280;29616;51.950;8.572;2022-09-16T06:19:09;99307.34;;;12.32;100.00
7441;BME280;29616;51.950;8.572;2022-09-16T06:21:39;99302.28;;;12.29;100.00
7441;BME280;29616;51.950;8.572;2022-09-16T06:24:10;99312.00;;;12.32;100.00
7441;BME280;29616;51.950;8.572;2022-09-16T06:26:40;99307.50;;;12.39;100.00
7441;BME280;29616;51.950;8.572;2022-09-16T06:29:11;99317.66;;;12.53;100.00
7441;BME280;29616;51.950;8.572;2022-09-16T06:31:39;99312.09;;;12.61;100.00
7441;BME280;29616;51.950;8.572;2022-09-16T06:34:13;99315.28;;;12.87;100.00
7441;BME280;29616;51.950;8.572;2022-09-16T06:36:42;99288.16;;;12.92;100.00
7441;BME280;29616;51.950;8.572;2022-09-16T06:39:14;99308.16;;;12.78;100.00
7441;BME280;29616;51.950;8.572;2022-09-16T06:41:42;99306.13;;;12.95;100.00
7441;BME280;29616;51.950;8.572;2022-09-16T06:44:13;99307.16;;;12.94;100.00
7441;BME280;29616;51.950;8.572;2022-09-16T06:46:41;99302.53;;;12.94;100.00
7441;BME280;29616;51.950;8.572;2022-09-16T06:49:10;99297.69;;;12.82;100.00
7441;BME280;29616;51.950;8.572;2022-09-16T06:51:38;99298.78;;;12.58;100.00
7441;BME280;29616;51.950;8.572;2022-09-16T06:54:08;99301.31;;;12.59;100.00
7441;BME280;29616;51.950;8.572;2022-09-16T06:56:36;99294.06;;;12.66;100.00
7441;BME280;29616;51.950;8.572;2022-09-16T06:59:09;99294.38;;;12.49;100.00
7441;BME280;29616;51.950;8.572;2022-09-16T07:01:40;99300.00;;;12.70;100.00
7441;BME280;29616;51.950;8.572;2022-09-16T07:04:09;99308.22;;;12.93;100.00
7441;BME280;29616;51.950;8.572;2022-09-16T07:06:39;99306.09;;;13.32;100.00
7441;BME280;29616;51.950;8.572;2022-09-16T07:09:27;99302.66;;;13.59;100.00
7441;BME280;29616;51.950;8.572;2022-09-16T07:11:56;99286.19;;;14.31;100.00
7441;BME280;29616;51.950;8.572;2022-09-16T07:14:25;99297.50;;;14.42;100.00
7441;BME280;29616;51.950;8.572;2022-09-16T07:16:54;99306.94;;;15.65;100.00
7441;BME280;29616;51.950;8.572;2022-09-16T07:19:23;99299.72;;;14.53;100.00
7441;BME280;29616;51.950;8.572;2022-09-16T07:21:52;99293.44;;;14.17;100.00
7441;BME280;29616;51.950;8.572;2022-09-16T07:24:20;99294.59;;;14.29;100.00
7441;BME280;29616;51.950;8.572;2022-09-16T07:26:48;99297.66;;;14.34;100.00
7441;BME280;29616;51.950;8.572;2022-09-16T07:29:17;99303.84;;;14.43;100.00
7441;BME280;29616;51.950;8.572;2022-09-16T07:31:46;99300.16;;;14.15;100.00
7441;BME280;29616;51.950;8.572;2022-09-16T07:34:16;99304.28;;;14.25;100.00
7441;BME280;29616;51.950;8.572;2022-09-16T07:36:47;99299.09;;;14.51;100.00
7441;BME280;29616;51.950;8.572;2022-09-16T07:39:17;99297.25;;;14.37;100.00
7441;BME280;29616;51.950;8.572;2022-09-16T07:41:47;99307.84;;;14.62;100.00
7441;BME280;29616;51.950;8.572;2022-09-16T07:44:18;99286.34;;;16.09;100.00
7441;BME280;29616;51.950;8.572;2022-09-16T07:46:47;99310.19;;;15.82;100.00
7441;BME280;29616;51.950;8.572;2022-09-16T07:49:18;99317.25;;;16.84;100.00
7441;BME280;29616;51.950;8.572;2022-09-16T07:51:47;99306.66;;;16.08;100.00
7441;BME280;29616;51.950;8.572;2022-09-16T07:54:17;99290.09;;;16.81;100.00
7441;BME280;29616;51.950;8.572;2022-09-16T07:56:46;99307.91;;;16.66;100.00
7441;BME280;29616;51.950;8.572;2022-09-16T07:59:16;99305.31;;;15.77;100.00
7441;BME280;29616;51.950;8.572;2022-09-16T08:01:46;99321.03;;;15.22;100.00
7441;BME280;29616;51.950;8.572;2022-09-16T08:04:18;99325.91;;;14.71;100.00
7441;BME280;29616;51.950;8.572;2022-09-16T08:06:47;99322.78;;;14.52;100.00
7441;BME280;29616;51.950;8.572;2022-09-16T08:09:15;99316.09;;;15.79;100.00
7441;BME280;29616;51.950;8.572;2022-09-16T08:12:05;99322.28;;;15.88;100.00
7441;BME280;29616;51.950;8.572;2022-09-16T08:14:34;99309.66;;;16.13;100.00
7441;BME280;29616;51.950;8.572;2022-09-16T08:17:02;99308.84;;;16.19;100.00
7441;BME280;29616;51.950;8.572;2022-09-16T08:19:32;99326.78;;;17.15;100.00
7441;BME280;29616;51.950;8.572;2022-09-16T08:22:00;99322.22;;;17.79;100.00
7441;BME280;29616;51.950;8.572;2022-09-16T08:24:28;99303.25;;;16.92;100.00
7441;BME280;29616;51.950;8.572;2022-09-16T08:26:56;99318.41;;;16.29;100.00
7441;BME280;29616;51.950;8.572;2022-09-16T08:29:25;99326.56;;;17.42;100.00
7441;BME280;29616;51.950;8.572;2022-09-16T08:31:53;99321.66;;;17.51;100.00
7441;BME280;29616;51.950;8.572;2022-09-16T08:34:21;99324.41;;;17.64;100.00
7441;BME280;29616;51.950;8.572;2022-09-16T08:36:51;99315.78;;;17.98;100.00
7441;BME280;29616;51.950;8.572;2022-09-16T08:39:19;99315.59;;;18.31;100.00
7441;BME280;29616;51.950;8.572;2022-09-16T08:42:04;99316.84;;;19.04;100.00
7441;BME280;29616;51.950;8.572;2022-09-16T08:44:43;99321.69;;;19.09;100.00
7441;BME280;29616;51.950;8.572;2022-09-16T08:47:27;99317.06;;;19.03;100.00
7441;BME280;29616;51.950;8.572;2022-09-16T08:50:04;99330.97;;;17.76;100.00
7441;BME280;29616;51.950;8.572;2022-09-16T08:52:36;99315.78;;;17.08;100.00
7441;BME280;29616;51.950;8.572;2022-09-16T08:55:11;99316.38;;;18.45;100.00
7441;BME280;29616;51.950;8.572;2022-09-16T08:57:47;99311.69;;;18.45;100.00
7441;BME280;29616;51.950;8.572;2022-09-16T09:00:18;99328.53;;;17.99;100.00
7441;BME280;29616;51.950;8.572;2022-09-16T09:02:51;99321.84;;;18.64;100.00
7441;BME280;29616;51.950;8.572;2022-09-16T09:05:28;99319.78;;;18.09;100.00
7441;BME280;29616;51.950;8.572;2022-09-16T09:08:19;99323.63;;;16.78;100.00
7441;BME280;29616;51.950;8.572;2022-09-16T09:10:52;99307.41;;;16.43;100.00
7441;BME280;29616;51.950;8.572;2022-09-16T09:13:39;99319.66;;;16.27;100.00
7441;BME280;29616;51.950;8.572;2022-09-16T09:16:23;99326.59;;;16.83;100.00
7441;BME280;29616;51.950;8.572;2022-09-16T09:19:08;99332.44;;;16.48;100.00
7441;BME280;29616;51.950;8.572;2022-09-16T09:21:46;99320.44;;;16.01;100.00
7441;BME280;29616;51.950;8.572;2022-09-16T09:24:53;99323.34;;;16.47;100.00
7441;BME280;29616;51.950;8.572;2022-09-16T09:27:26;99328.16;;;15.71;100.00
7441;BME280;29616;51.950;8.572;2022-09-16T09:30:08;99321.06;;;16.77;100.00
7441;BME280;29616;51.950;8.572;2022-09-16T09:32:57;99322.31;;;17.53;100.00
7441;BME280;29616;51.950;8.572;2022-09-16T09:35:45;99303.09;;;17.84;100.00
7441;BME280;29616;51.950;8.572;2022-09-16T09:38:37;99305.91;;;19.34;100.00
7441;BME280;29616;51.950;8.572;2022-09-16T09:41:13;99308.59;;;19.65;100.00
7441;BME280;29616;51.950;8.572;2022-09-16T09:43:49;99315.72;;;20.45;100.00
7441;BME280;29616;51.950;8.572;2022-09-16T09:46:28;99302.09;;;20.08;100.00
7441;BME280;29616;51.950;8.572;2022-09-16T09:49:08;99302.22;;;21.02;100.00
7441;BME280;29616;51.950;8.572;2022-09-16T09:51:44;99299.72;;;20.71;94.41
7441;BME280;29616;51.950;8.572;2022-09-16T09:54:24;99303.31;;;19.14;100.00
7441;BME280;29616;51.950;8.572;2022-09-16T09:56:59;99293.88;;;18.41;100.00
7441;BME280;29616;51.950;8.572;2022-09-16T09:59:35;99285.19;;;17.93;100.00
7441;BME280;29616;51.950;8.572;2022-09-16T10:02:14;99298.84;;;17.75;100.00
7441;BME280;29616;51.950;8.572;2022-09-16T10:04:44;99280.66;;;17.48;100.00
7441;BME280;29616;51.950;8.572;2022-09-16T10:07:16;99299.34;;;17.33;100.00
7441;BME280;29616;51.950;8.572;2022-09-16T10:09:50;99293.28;;;18.33;100.00
7441;BME280;29616;51.950;8.572;2022-09-16T10:12:29;99279.56;;;19.68;100.00
7441;BME280;29616;51.950;8.572;2022-09-16T10:14:58;99279.22;;;20.12;98.96
7441;BME280;29616;51.950;8.572;2022-09-16T10:17:30;99255.69;;;20.15;100.00
7441;BME280;29616;51.950;8.572;2022-09-16T10:20:02;99284.38;;;20.57;86.77
7441;BME280;29616;51.950;8.572;2022-09-16T10:22:34;99283.19;;;19.68;95.39
7441;BME280;29616;51.950;8.572;2022-09-16T10:25:05;99287.56;;;19.40;100.00
7441;BME280;29616;51.950;8.572;2022-09-16T10:27:37;99276.56;;;18.84;100.00
7441;BME280;29616;51.950;8.572;2022-09-16T10:30:12;99273.22;;;18.44;100.00
7441;BME280;29616;51.950;8.572;2022-09-16T10:32:48;99282.72;;;18.16;100.00
7441;BME280;29616;51.950;8.572;2022-09-16T10:35:21;99289.25;;;18.29;100.00
7441;BME280;29616;51.950;8.572;2022-09-16T10:37:55;99272.41;;;18.93;100.00
7441;BME280;29616;51.950;8.572;2022-09-16T10:40:25;99273.72;;;18.65;100.00
7441;BME280;29616;51.950;8.572;2022-09-16T10:43:00;99276.34;;;18.54;100.00
7441;BME280;29616;51.950;8.572;2022-09-16T10:45:32;99261.75;;;18.02;100.00
7441;BME280;29616;51.950;8.572;2022-09-16T10:48:05;99259.09;;;18.83;100.00
7441;BME280;29616;51.950;8.572;2022-09-16T10:50:34;99277.69;;;20.16;98.64
7441;BME280;29616;51.950;8.572;2022-09-16T10:53:18;99272.16;;;19.44;93.46
7441;BME280;29616;51.950;8.572;2022-09-16T10:55:56;99274.50;;;18.41;99.61
7441;BME280;29616;51.950;8.572;2022-09-16T10:58:27;99268.53;;;18.75;100.00
7441;BME280;29616;51.950;8.572;2022-09-16T11:01:19;99268.31;;;19.63;98.23
7441;BME280;29616;51.950;8.572;2022-09-16T11:04:24;99262.78;;;20.29;91.56
7441;BME280;29616;51.950;8.572;2022-09-16T11:07:16;99261.94;;;19.44;95.66
7441;BME280;29616;51.950;8.572;2022-09-16T11:09:55;99258.31;;;19.80;98.02
7441;BME280;29616;51.950;8.572;2022-09-16T11:12:54;99258.53;;;18.05;100.00
7441;BME280;29616;51.950;8.572;2022-09-16T11:15:37;99259.94;;;18.21;100.00
7441;BME280;29616;51.950;8.572;2022-09-16T11:18:31;99237.47;;;18.04;100.00
7441;BME280;29616;51.950;8.572;2022-09-16T11:21:22;99243.63;;;17.69;100.00
7441;BME280;29616;51.950;8.572;2022-09-16T11:24:29;99253.13;;;18.24;100.00
7441;BME280;29616;51.950;8.572;2022-09-16T11:27:12;99253.69;;;19.38;97.57
7441;BME280;29616;51.950;8.572;2022-09-16T11:29:58;99239.72;;;20.46;84.34
7441;BME280;29616;51.950;8.572;2022-09-16T11:32:55;99240.81;;;19.98;84.37
7441;BME280;29616;51.950;8.572;2022-09-16T11:36:01;99253.03;;;20.08;79.54
7441;BME280;29616;51.950;8.572;2022-09-16T11:38:39;99251.28;;;20.55;76.49
7441;BME280;29616;51.950;8.572;2022-09-16T11:41:22;99253.03;;;20.08;81.11
7441;BME280;29616;51.950;8.572;2022-09-16T11:44:07;99241.78;;;21.16;76.33
7441;BME280;29616;51.950;8.572;2022-09-16T11:46:47;99248.63;;;21.48;70.93
7441;BME280;29616;51.950;8.572;2022-09-16T11:49:49;99251.59;;;21.81;72.44
7441;BME280;29616;51.950;8.572;2022-09-16T11:52:41;99239.59;;;22.32;63.51
7441;BME280;29616;51.950;8.572;2022-09-16T11:55:30;99251.09;;;22.52;68.10
7441;BME280;29616;51.950;8.572;2022-09-16T11:58:17;99244.38;;;20.76;71.23
7441;BME280;29616;51.950;8.572;2022-09-16T12:00:49;99253.25;;;20.07;83.29
7441;BME280;29616;51.950;8.572;2022-09-16T12:03:25;99261.66;;;19.27;84.96
7441;BME280;29616;51.950;8.572;2022-09-16T12:06:04;99242.47;;;19.08;86.77
7441;BME280;29616;51.950;8.572;2022-09-16T12:08:50;99236.38;;;19.78;85.46
7441;BME280;29616;51.950;8.572;2022-09-16T12:11:26;99241.19;;;20.61;82.17
7441;BME280;29616;51.950;8.572;2022-09-16T12:14:07;99242.19;;;19.34;86.35
7441;BME280;29616;51.950;8.572;2022-09-16T12:16:42;99259.31;;;18.57;95.72
7441;BME280;29616;51.950;8.572;2022-09-16T12:19:25;99287.94;;;17.16;100.00
7441;BME280;29616;51.950;8.572;2022-09-16T12:22:00;99317.75;;;15.67;100.00
7441;BME280;29616;51.950;8.572;2022-09-16T12:24:38;99325.09;;;13.33;100.00
7441;BME280;29616;51.950;8.572;2022-09-16T12:27:14;99319.59;;;12.44;100.00
7441;BME280;29616;51.950;8.572;2022-09-16T12:29:54;99311.38;;;12.22;100.00
7441;BME280;29616;51.950;8.572;2022-09-16T12:32:34;99321.31;;;12.23;100.00
7441;BME280;29616;51.950;8.572;2022-09-16T12:35:12;99317.84;;;12.29;100.00
7441;BME280;29616;51.950;8.572;2022-09-16T12:37:46;99338.91;;;12.28;100.00
7441;BME280;29616;51.950;8.572;2022-09-16T12:40:19;99321.00;;;12.40;100.00
7441;BME280;29616;51.950;8.572;2022-09-16T12:43:19;99320.84;;;12.79;100.00
7441;BME280;29616;51.950;8.572;2022-09-16T12:50:05;99294.84;;;14.13;100.00
7441;BME280;29616;51.950;8.572;2022-09-16T12:53:26;99299.34;;;13.64;100.00
7441;BME280;29616;51.950;8.572;2022-09-16T12:56:08;99293.88;;;14.84;100.00
7441;BME280;29616;51.950;8.572;2022-09-16T12:59:05;99272.88;;;15.80;100.00
7441;BME280;29616;51.950;8.572;2022-09-16T13:01:42;99277.31;;;16.61;100.00
7441;BME280;29616;51.950;8.572;2022-09-16T13:04:16;99274.94;;;17.30;100.00
7441;BME280;29616;51.950;8.572;2022-09-16T13:06:47;99273.00;;;17.43;100.00
7441;BME280;29616;51.950;8.572;2022-09-16T13:09:25;99264.75;;;18.01;100.00
7441;BME280;29616;51.950;8.572;2022-09-16T13:11:59;99252.25;;;18.61;100.00
7441;BME280;29616;51.950;8.572;2022-09-16T13:14:51;99244.72;;;19.35;100.00
7441;BME280;29616;51.950;8.572;2022-09-16T13:17:29;99237.97;;;18.33;100.00
7441;BME280;29616;51.950;8.572;2022-09-16T13:20:04;99241.94;;;18.43;100.00
7441;BME280;29616;51.950;8.572;2022-09-16T13:22:41;99239.44;;;17.53;100.00
7441;BME280;29616;51.950;8.572;2022-09-16T13:25:20;99233.13;;;18.22;100.00
7441;BME280;29616;51.950;8.572;2022-09-16T13:27:56;99235.34;;;19.18;100.00
7441;BME280;29616;51.950;8.572;2022-09-16T13:30:30;99236.28;;;19.67;100.00
7441;BME280;29616;51.950;8.572;2022-09-16T13:35:48;99238.72;;;20.23;100.00
7441;BME280;29616;51.950;8.572;2022-09-16T13:38:34;99231.63;;;19.97;100.00
7441;BME280;29616;51.950;8.572;2022-09-16T13:41:09;99230.84;;;20.08;100.00
7441;BME280;29616;51.950;8.572;2022-09-16T13:43:51;99219.97;;;20.25;100.00
7441;BME280;29616;51.950;8.572;2022-09-16T13:46:32;99234.19;;;20.70;100.00
7441;BME280;29616;51.950;8.572;2022-09-16T13:49:24;99220.59;;;20.09;100.00